createdAt,value
2023-02-04T00:08:46.253Z,-0.33
2023-02-04T00:18:50.238Z,-0.47
2023-02-04T00:29:01.484Z,-0.42
2023-02-04T00:39:05.320Z,-0.55
2023-02-04T00:49:11.195Z,-0.60
2023-02-04T00:59:15.233Z,-0.78
2023-02-04T01:09:19.008Z,-0.98
2023-02-04T01:19:27.926Z,-0.96
2023-02-04T01:29:40.963Z,-0.82
2023-02-04T01:39:44.969Z,-0.72
2023-02-04T01:49:53.687Z,-0.81
2023-02-04T01:59:58.028Z,-0.77
2023-02-04T02:10:04.504Z,-0.96
2023-02-04T02:20:11.097Z,-1.26
2023-02-04T02:30:19.991Z,-1.41
2023-02-04T02:40:24.332Z,-1.64
2023-02-04T02:50:30.977Z,-1.86
2023-02-04T03:00:36.564Z,-2.09
2023-02-04T03:10:41.188Z,-2.27
2023-02-04T03:20:45.035Z,-2.44
2023-02-04T03:30:54.102Z,-2.60
2023-02-04T03:40:57.909Z,-2.76
2023-02-04T03:51:01.606Z,-2.87
2023-02-04T04:01:05.464Z,-2.90
2023-02-04T04:11:09.081Z,-3.03
2023-02-04T04:21:13.025Z,-3.05
2023-02-04T04:31:16.963Z,-3.20
2023-02-04T04:41:20.999Z,-3.21
2023-02-04T04:51:24.708Z,-3.21
2023-02-04T05:01:37.465Z,-3.07
2023-02-04T05:11:43.653Z,-2.70
2023-02-04T05:21:47.338Z,-2.73
2023-02-04T05:31:51.109Z,-3.05
2023-02-04T05:41:54.789Z,-3.20
2023-02-04T05:51:58.622Z,-2.95
2023-02-04T06:02:02.496Z,-2.39
2023-02-04T06:12:06.417Z,-2.08
2023-02-04T06:22:10.232Z,-1.88
2023-02-04T06:32:13.914Z,-1.71
2023-02-04T06:42:17.691Z,-1.59
2023-02-04T06:52:21.357Z,-1.39
2023-02-04T07:02:25.227Z,-1.00
2023-02-04T07:12:29.298Z,-0.80
2023-02-04T07:22:32.985Z,-0.37
2023-02-04T07:32:36.792Z,-0.19
2023-02-04T07:42:40.551Z,-0.23
2023-02-04T07:52:47.586Z,-0.17
2023-02-04T08:02:51.542Z,-0.36
2023-02-04T08:12:55.400Z,-0.26
2023-02-04T08:22:59.149Z,-0.29
2023-02-04T08:33:02.897Z,-0.04
2023-02-04T08:43:07.044Z,-0.10
2023-02-04T08:53:10.935Z,-0.43
2023-02-04T09:03:14.873Z,-0.63
2023-02-04T09:13:18.836Z,-0.84
2023-02-04T09:23:24.289Z,-1.30
2023-02-04T09:33:28.440Z,-1.55
2023-02-04T09:43:44.621Z,-1.58
2023-02-04T09:53:49.870Z,-1.58
2023-02-04T10:04:00.946Z,-1.48
2023-02-04T10:14:05.064Z,-1.17
2023-02-04T10:24:26.481Z,-1.20
2023-02-04T10:34:40.306Z,-1.37
2023-02-04T10:44:47.861Z,-1.37
2023-02-04T10:54:51.581Z,-1.30
2023-02-04T11:04:55.353Z,-0.82
2023-02-04T11:14:59.164Z,-0.80
2023-02-04T11:25:02.997Z,-0.84
2023-02-04T11:35:12.872Z,-0.57
2023-02-04T11:45:26.871Z,-0.71
2023-02-04T11:55:32.904Z,-0.43
2023-02-04T12:05:45.063Z,-0.40
2023-02-04T12:16:06.564Z,-0.14
2023-02-04T12:26:11.398Z,-0.12
2023-02-04T12:36:15.153Z,-0.03
2023-02-04T12:46:19.044Z,-0.24
2023-02-04T12:56:24.415Z,-0.14
2023-02-04T13:06:30.971Z,0.36
2023-02-04T13:16:35.030Z,0.24
2023-02-04T13:26:41.987Z,-0.03
2023-02-04T13:36:46.185Z,-0.15
2023-02-04T13:46:50.259Z,-0.15
2023-02-04T13:56:57.565Z,-0.13
2023-02-04T14:07:03.190Z,-0.06
2023-02-04T14:17:08.910Z,0.03
2023-02-04T14:27:13.914Z,-0.17
2023-02-04T14:37:18.376Z,-0.05
2023-02-04T14:47:26.710Z,-0.13
2023-02-04T14:57:32.072Z,-0.25
2023-02-04T15:07:37.023Z,-0.64
2023-02-04T15:17:54.165Z,-1.05
2023-02-04T15:27:58.185Z,-1.28
2023-02-04T15:38:04.964Z,-1.43
2023-02-04T15:48:08.831Z,-1.44
2023-02-04T15:58:16.387Z,-1.50
2023-02-04T16:08:20.323Z,-1.56
2023-02-04T16:18:44.754Z,-1.46
2023-02-04T16:28:48.918Z,-1.76
2023-02-04T16:38:52.668Z,-1.82
2023-02-04T16:48:56.651Z,-1.55
2023-02-04T16:59:00.527Z,-1.47
2023-02-04T17:09:04.637Z,-1.66
2023-02-04T17:19:11.985Z,-1.98
2023-02-04T17:29:22.223Z,-2.20
2023-02-04T17:39:26.183Z,-2.21
2023-02-04T17:49:32.802Z,-2.24
2023-02-04T17:59:37.474Z,-2.25
2023-02-04T18:09:41.730Z,-2.28
2023-02-04T18:19:45.590Z,-2.37
2023-02-04T18:29:53.132Z,-2.55
2023-02-04T18:40:09.281Z,-2.48
2023-02-04T18:50:33.538Z,-2.54
2023-02-04T19:00:41.071Z,-2.60
2023-02-04T19:10:45.100Z,-2.73
2023-02-04T19:20:50.376Z,-2.84
2023-02-04T19:31:00.300Z,-2.44
2023-02-04T19:41:20.204Z,-2.04
2023-02-04T19:51:29.594Z,-2.16
2023-02-04T20:01:33.883Z,-2.47
2023-02-04T20:11:42.011Z,-2.88
2023-02-04T20:22:01.149Z,-3.13
2023-02-04T20:32:28.449Z,-3.09
2023-02-04T20:42:44.467Z,-2.81
2023-02-04T20:52:48.120Z,-2.48
2023-02-04T21:02:51.977Z,-2.53
2023-02-04T21:12:59.766Z,-2.69
2023-02-04T21:23:06.048Z,-2.66
2023-02-04T21:33:13.101Z,-2.51
2023-02-04T21:43:17.653Z,-2.37
2023-02-04T21:53:21.469Z,-2.44
2023-02-04T22:03:25.286Z,-2.34
2023-02-04T22:13:47.751Z,-2.12
2023-02-04T22:23:51.457Z,-2.38
2023-02-04T22:33:55.408Z,-2.37
2023-02-04T22:44:02.127Z,-2.26
2023-02-04T22:54:05.882Z,-2.16
2023-02-04T23:04:09.700Z,-2.10
2023-02-04T23:14:13.598Z,-2.23
2023-02-04T23:24:17.537Z,-2.47
2023-02-04T23:34:22.270Z,-2.77
2023-02-04T23:44:26.120Z,-2.92
2023-02-04T23:54:29.864Z,-2.96
